Flugplatz Siegerland

Prognose für EDGS

vom 23.10. um 18:50 UTC

Am 23.10. zwischen 18:00 UTC und 03:00 UTC

Wind 15 kt aus 280° in Böen 25 kt

Sichtweite 2000 m

schwacher Sprühregen

feuchter Dunst

bedeckt in 600 ft


Am 23.10. zwischen 18:00 UTC und 03:00 UTC zeitweise

Sichtweite 300 m

schwacher Regen

schwacher Sprühregen

Nebel

bedeckt in 100 ft

TAF AMD EDGS 231850Z 2318/2403 28015G25KT 2000 -DZ BR OVC006 TEMPO 2318/2403 0300 -RADZ FG OVC001
Impressum